sensor_id;sensor_type;location;lat;lon;timestamp;pressure;altitude;pressure_sealevel;temperature;humidity
21824;BME280;11074;48.596;9.238;2024-03-29T00:00:21;96600.19;;;7.16;76.37
21824;BME280;11074;48.596;9.238;2024-03-29T00:02:52;96592.25;;;7.01;77.02
21824;BME280;11074;48.596;9.238;2024-03-29T00:05:18;96596.50;;;6.61;78.41
21824;BME280;11074;48.596;9.238;2024-03-29T00:07:43;96588.81;;;6.80;77.55
21824;BME280;11074;48.596;9.238;2024-03-29T00:10:08;96574.97;;;7.03;77.25
21824;BME280;11074;48.596;9.238;2024-03-29T00:12:34;96569.41;;;6.95;78.22
21824;BME280;11074;48.596;9.238;2024-03-29T00:14:59;96554.53;;;6.99;78.53
21824;BME280;11074;48.596;9.238;2024-03-29T00:17:24;96545.22;;;7.06;78.20
21824;BME280;11074;48.596;9.238;2024-03-29T00:19:49;96543.34;;;7.12;77.36
21824;BME280;11074;48.596;9.238;2024-03-29T00:22:15;96531.66;;;7.18;76.77
21824;BME280;11074;48.596;9.238;2024-03-29T00:24:40;96532.72;;;7.12;77.34
21824;BME280;11074;48.596;9.238;2024-03-29T00:27:05;96515.41;;;7.19;77.23
21824;BME280;11074;48.596;9.238;2024-03-29T00:29:32;96499.50;;;7.14;77.71
21824;BME280;11074;48.596;9.238;2024-03-29T00:31:57;96497.63;;;7.15;77.72
21824;BME280;11074;48.596;9.238;2024-03-29T00:34:23;96500.53;;;7.13;77.21
21824;BME280;11074;48.596;9.238;2024-03-29T00:36:48;96502.66;;;7.21;77.86
21824;BME280;11074;48.596;9.238;2024-03-29T00:39:13;96491.47;;;7.29;77.35
21824;BME280;11074;48.596;9.238;2024-03-29T00:41:38;96469.16;;;7.25;77.54
21824;BME280;11074;48.596;9.238;2024-03-29T00:44:04;96447.09;;;7.25;77.88
21824;BME280;11074;48.596;9.238;2024-03-29T00:46:29;96448.44;;;7.22;78.28
21824;BME280;11074;48.596;9.238;2024-03-29T00:48:54;96442.59;;;7.25;78.33
21824;BME280;11074;48.596;9.238;2024-03-29T00:51:19;96444.22;;;7.16;78.26
21824;BME280;11074;48.596;9.238;2024-03-29T00:53:45;96457.50;;;7.11;78.37
21824;BME280;11074;48.596;9.238;2024-03-29T00:56:10;96470.78;;;7.16;78.12
21824;BME280;11074;48.596;9.238;2024-03-29T00:58:36;96471.56;;;7.22;78.00
21824;BME280;11074;48.596;9.238;2024-03-29T01:01:01;96486.16;;;7.24;77.65
21824;BME280;11074;48.596;9.238;2024-03-29T01:03:26;96481.38;;;7.26;77.33
21824;BME280;11074;48.596;9.238;2024-03-29T01:05:54;96473.63;;;7.35;77.13
21824;BME280;11074;48.596;9.238;2024-03-29T01:08:19;96472.31;;;7.32;77.30
21824;BME280;11074;48.596;9.238;2024-03-29T01:10:45;96468.66;;;7.18;76.76
21824;BME280;11074;48.596;9.238;2024-03-29T01:13:10;96466.00;;;7.13;76.56
21824;BME280;11074;48.596;9.238;2024-03-29T01:15:35;96471.28;;;7.28;77.04
21824;BME280;11074;48.596;9.238;2024-03-29T01:18:00;96454.50;;;7.33;76.54
21824;BME280;11074;48.596;9.238;2024-03-29T01:20:26;96451.88;;;7.28;76.53
21824;BME280;11074;48.596;9.238;2024-03-29T01:22:51;96450.91;;;7.04;76.40
21824;BME280;11074;48.596;9.238;2024-03-29T01:25:16;96441.84;;;7.15;78.16
21824;BME280;11074;48.596;9.238;2024-03-29T01:27:42;96445.34;;;7.00;77.84
21824;BME280;11074;48.596;9.238;2024-03-29T01:30:08;96457.06;;;6.84;79.43
21824;BME280;11074;48.596;9.238;2024-03-29T01:32:33;96448.28;;;6.99;79.18
21824;BME280;11074;48.596;9.238;2024-03-29T01:34:58;96437.63;;;7.04;78.58
21824;BME280;11074;48.596;9.238;2024-03-29T01:37:24;96429.13;;;7.02;79.56
21824;BME280;11074;48.596;9.238;2024-03-29T01:39:49;96442.69;;;7.00;79.04
21824;BME280;11074;48.596;9.238;2024-03-29T01:42:14;96439.47;;;7.08;79.50
21824;BME280;11074;48.596;9.238;2024-03-29T01:44:40;96443.97;;;7.13;79.49
21824;BME280;11074;48.596;9.238;2024-03-29T01:47:05;96441.56;;;7.16;78.97
21824;BME280;11074;48.596;9.238;2024-03-29T01:49:31;96445.81;;;7.17;77.96
21824;BME280;11074;48.596;9.238;2024-03-29T01:51:56;96440.75;;;7.21;77.55
21824;BME280;11074;48.596;9.238;2024-03-29T01:54:22;96449.00;;;7.14;77.69
21824;BME280;11074;48.596;9.238;2024-03-29T01:56:47;96446.88;;;7.16;78.24
21824;BME280;11074;48.596;9.238;2024-03-29T01:59:16;96445.50;;;7.24;77.86
21824;BME280;11074;48.596;9.238;2024-03-29T02:01:42;96450.13;;;6.98;78.90
21824;BME280;11074;48.596;9.238;2024-03-29T02:04:09;96436.03;;;6.98;80.42
21824;BME280;11074;48.596;9.238;2024-03-29T02:06:35;96439.53;;;6.93;80.78
21824;BME280;11074;48.596;9.238;2024-03-29T02:09:00;96439.47;;;7.03;81.24
21824;BME280;11074;48.596;9.238;2024-03-29T02:11:25;96439.97;;;7.15;80.41
21824;BME280;11074;48.596;9.238;2024-03-29T02:13:51;96442.66;;;7.10;80.63
21824;BME280;11074;48.596;9.238;2024-03-29T02:16:17;96432.63;;;6.92;81.32
21824;BME280;11074;48.596;9.238;2024-03-29T02:18:42;96433.56;;;7.21;80.36
21824;BME280;11074;48.596;9.238;2024-03-29T02:21:08;96433.84;;;7.20;80.02
21824;BME280;11074;48.596;9.238;2024-03-29T02:23:37;96430.88;;;7.31;79.61
21824;BME280;11074;48.596;9.238;2024-03-29T02:26:03;96424.25;;;7.24;79.88
21824;BME280;11074;48.596;9.238;2024-03-29T02:28:28;96427.63;;;7.34;79.95
21824;BME280;11074;48.596;9.238;2024-03-29T02:30:53;96417.22;;;7.43;79.35
21824;BME280;11074;48.596;9.238;2024-03-29T02:33:21;96437.47;;;7.39;79.84
21824;BME280;11074;48.596;9.238;2024-03-29T02:35:46;96428.97;;;7.37;80.31
21824;BME280;11074;48.596;9.238;2024-03-29T02:38:11;96412.47;;;7.40;79.61
21824;BME280;11074;48.596;9.238;2024-03-29T02:40:36;96421.75;;;7.43;79.43
21824;BME280;11074;48.596;9.238;2024-03-29T02:43:02;96417.00;;;7.40;79.44
21824;BME280;11074;48.596;9.238;2024-03-29T02:45:27;96400.50;;;7.38;78.97
21824;BME280;11074;48.596;9.238;2024-03-29T02:47:52;96397.84;;;7.38;79.39
21824;BME280;11074;48.596;9.238;2024-03-29T02:50:18;96397.84;;;7.38;79.90
21824;BME280;11074;48.596;9.238;2024-03-29T02:52:43;96396.25;;;7.42;79.17
21824;BME280;11074;48.596;9.238;2024-03-29T02:55:09;96401.53;;;7.47;79.53
21824;BME280;11074;48.596;9.238;2024-03-29T02:57:38;96409.50;;;7.47;79.39
21824;BME280;11074;48.596;9.238;2024-03-29T03:00:07;96433.47;;;7.42;79.15
21824;BME280;11074;48.596;9.238;2024-03-29T03:02:37;96431.31;;;7.44;79.20
21824;BME280;11074;48.596;9.238;2024-03-29T03:05:04;96426.59;;;7.36;78.86
21824;BME280;11074;48.596;9.238;2024-03-29T03:07:29;96435.31;;;7.41;78.82
21824;BME280;11074;48.596;9.238;2024-03-29T03:10:13;96434.03;;;7.33;79.10
21824;BME280;11074;48.596;9.238;2024-03-29T03:12:57;96441.81;;;7.20;79.05
21824;BME280;11074;48.596;9.238;2024-03-29T03:15:22;96446.59;;;7.18;79.80
21824;BME280;11074;48.596;9.238;2024-03-29T03:17:47;96451.66;;;7.14;80.17
21824;BME280;11074;48.596;9.238;2024-03-29T03:20:12;96451.88;;;7.28;79.75
21824;BME280;11074;48.596;9.238;2024-03-29T03:22:40;96446.25;;;7.34;79.90
21824;BME280;11074;48.596;9.238;2024-03-29T03:25:06;96442.56;;;7.30;80.32
21824;BME280;11074;48.596;9.238;2024-03-29T03:27:31;96452.44;;;7.20;81.76
21824;BME280;11074;48.596;9.238;2024-03-29T03:29:56;96442.91;;;7.14;81.52
21824;BME280;11074;48.596;9.238;2024-03-29T03:32:22;96458.59;;;7.10;81.97
21824;BME280;11074;48.596;9.238;2024-03-29T03:34:47;96449.06;;;7.04;82.08
21824;BME280;11074;48.596;9.238;2024-03-29T03:37:12;96458.50;;;7.30;81.06
21824;BME280;11074;48.596;9.238;2024-03-29T03:39:38;96464.09;;;7.29;80.79
21824;BME280;11074;48.596;9.238;2024-03-29T03:42:03;96476.31;;;7.30;81.65
21824;BME280;11074;48.596;9.238;2024-03-29T03:44:29;96473.09;;;7.38;81.35
21824;BME280;11074;48.596;9.238;2024-03-29T03:46:55;96460.09;;;7.37;81.14
21824;BME280;11074;48.596;9.238;2024-03-29T03:49:20;96470.78;;;7.16;81.00
21824;BME280;11074;48.596;9.238;2024-03-29T03:51:45;96466.75;;;7.24;80.87
21824;BME280;11074;48.596;9.238;2024-03-29T03:54:10;96434.56;;;7.36;80.83
21824;BME280;11074;48.596;9.238;2024-03-29T03:56:36;96438.50;;;7.43;79.83
21824;BME280;11074;48.596;9.238;2024-03-29T03:59:01;96442.28;;;7.37;79.94
21824;BME280;11074;48.596;9.238;2024-03-29T04:01:26;96419.56;;;7.55;79.58
21824;BME280;11074;48.596;9.238;2024-03-29T04:03:51;96426.84;;;7.39;81.01
21824;BME280;11074;48.596;9.238;2024-03-29T04:06:17;96431.88;;;7.41;80.76
21824;BME280;11074;48.596;9.238;2024-03-29T04:08:46;96406.28;;;7.55;80.26
21824;BME280;11074;48.596;9.238;2024-03-29T04:11:11;96385.25;;;7.58;79.89
21824;BME280;11074;48.596;9.238;2024-03-29T04:13:36;96393.97;;;7.64;79.89
21824;BME280;11074;48.596;9.238;2024-03-29T04:16:06;96386.28;;;7.62;79.26
21824;BME280;11074;48.596;9.238;2024-03-29T04:18:34;96387.84;;;7.68;79.68
21824;BME280;11074;48.596;9.238;2024-03-29T04:21:01;96409.41;;;7.62;80.07
21824;BME280;11074;48.596;9.238;2024-03-29T04:23:27;96416.31;;;7.63;79.95
21824;BME280;11074;48.596;9.238;2024-03-29T04:25:57;96418.97;;;7.63;79.63
21824;BME280;11074;48.596;9.238;2024-03-29T04:28:24;96422.44;;;7.63;79.69
21824;BME280;11074;48.596;9.238;2024-03-29T04:30:57;96413.91;;;7.66;79.40
21824;BME280;11074;48.596;9.238;2024-03-29T04:33:23;96421.03;;;7.76;79.64
21824;BME280;11074;48.596;9.238;2024-03-29T04:35:54;96424.09;;;7.54;80.03
21824;BME280;11074;48.596;9.238;2024-03-29T04:38:20;96425.16;;;7.53;80.40
21824;BME280;11074;48.596;9.238;2024-03-29T04:40:46;96443.50;;;7.55;80.01
21824;BME280;11074;48.596;9.238;2024-03-29T04:43:11;96450.59;;;7.64;79.89
21824;BME280;11074;48.596;9.238;2024-03-29T04:45:36;96433.25;;;7.72;80.21
21824;BME280;11074;48.596;9.238;2024-03-29T04:48:02;96415.22;;;7.69;81.00
21824;BME280;11074;48.596;9.238;2024-03-29T04:50:28;96441.34;;;7.57;81.42
21824;BME280;11074;48.596;9.238;2024-03-29T04:52:53;96433.56;;;7.70;81.10
21824;BME280;11074;48.596;9.238;2024-03-29T04:55:18;96400.03;;;7.69;81.59
21824;BME280;11074;48.596;9.238;2024-03-29T04:57:43;96389.06;;;7.81;80.93
21824;BME280;11074;48.596;9.238;2024-03-29T05:00:09;96388.50;;;7.84;80.96
21824;BME280;11074;48.596;9.238;2024-03-29T05:02:34;96387.84;;;7.68;81.61
21824;BME280;11074;48.596;9.238;2024-03-29T05:05:00;96394.44;;;7.76;80.84
21824;BME280;11074;48.596;9.238;2024-03-29T05:07:25;96400.53;;;7.76;81.18
21824;BME280;11074;48.596;9.238;2024-03-29T05:09:50;96407.16;;;7.79;81.57
21824;BME280;11074;48.596;9.238;2024-03-29T05:12:16;96399.66;;;7.86;80.80
21824;BME280;11074;48.596;9.238;2024-03-29T05:14:41;96402.31;;;7.86;80.32
21824;BME280;11074;48.596;9.238;2024-03-29T05:17:06;96414.00;;;7.90;80.20
21824;BME280;11074;48.596;9.238;2024-03-29T05:19:31;96412.66;;;7.92;80.07
21824;BME280;11074;48.596;9.238;2024-03-29T05:21:57;96409.75;;;7.89;80.35
21824;BME280;11074;48.596;9.238;2024-03-29T05:24:22;96406.59;;;7.87;80.78
21824;BME280;11074;48.596;9.238;2024-03-29T05:26:47;96413.25;;;7.84;80.58
21824;BME280;11074;48.596;9.238;2024-03-29T05:29:13;96399.66;;;7.86;81.34
21824;BME280;11074;48.596;9.238;2024-03-29T05:31:38;96391.81;;;7.71;81.49
21824;BME280;11074;48.596;9.238;2024-03-29T05:34:03;96402.75;;;7.64;83.21
21824;BME280;11074;48.596;9.238;2024-03-29T05:36:29;96422.59;;;7.82;82.35
21824;BME280;11074;48.596;9.238;2024-03-29T05:38:54;96437.44;;;7.83;82.99
21824;BME280;11074;48.596;9.238;2024-03-29T05:41:20;96430.56;;;7.82;82.10
21824;BME280;11074;48.596;9.238;2024-03-29T05:43:45;96433.19;;;7.87;82.04
21824;BME280;11074;48.596;9.238;2024-03-29T05:46:10;96447.53;;;7.86;81.92
21824;BME280;11074;48.596;9.238;2024-03-29T05:48:36;96445.97;;;7.85;81.64
21824;BME280;11074;48.596;9.238;2024-03-29T05:51:01;96459.19;;;7.95;80.70
21824;BME280;11074;48.596;9.238;2024-03-29T05:53:26;96467.84;;;7.77;81.37
21824;BME280;11074;48.596;9.238;2024-03-29T05:55:52;96464.59;;;7.85;80.12
21824;BME280;11074;48.596;9.238;2024-03-29T05:58:17;96462.91;;;7.94;78.84
21824;BME280;11074;48.596;9.238;2024-03-29T06:00:44;96458.31;;;8.05;78.70
21824;BME280;11074;48.596;9.238;2024-03-29T06:03:09;96452.31;;;7.89;77.56
21824;BME280;11074;48.596;9.238;2024-03-29T06:05:35;96445.34;;;7.98;78.11
21824;BME280;11074;48.596;9.238;2024-03-29T06:08:00;96453.84;;;8.00;77.00
21824;BME280;11074;48.596;9.238;2024-03-29T06:10:25;96448.72;;;8.09;76.32
21824;BME280;11074;48.596;9.238;2024-03-29T06:12:50;96444.94;;;8.15;76.50
21824;BME280;11074;48.596;9.238;2024-03-29T06:15:16;96450.44;;;8.23;76.58
21824;BME280;11074;48.596;9.238;2024-03-29T06:18:00;96434.22;;;8.25;76.63
21824;BME280;11074;48.596;9.238;2024-03-29T06:20:25;96425.44;;;8.24;75.41
21824;BME280;11074;48.596;9.238;2024-03-29T06:22:50;96441.66;;;8.23;75.92
21824;BME280;11074;48.596;9.238;2024-03-29T06:25:16;96436.88;;;8.25;74.42
21824;BME280;11074;48.596;9.238;2024-03-29T06:27:42;96448.53;;;8.34;75.23
21824;BME280;11074;48.596;9.238;2024-03-29T06:30:13;96440.88;;;8.27;75.16
21824;BME280;11074;48.596;9.238;2024-03-29T06:32:39;96438.69;;;8.34;74.70
21824;BME280;11074;48.596;9.238;2024-03-29T06:35:04;96432.38;;;8.20;73.95
21824;BME280;11074;48.596;9.238;2024-03-29T06:37:31;96423.47;;;8.40;73.75
21824;BME280;11074;48.596;9.238;2024-03-29T06:39:56;96416.41;;;8.54;73.05
21824;BME280;11074;48.596;9.238;2024-03-29T06:42:22;96414.44;;;8.60;73.16
21824;BME280;11074;48.596;9.238;2024-03-29T06:44:48;96403.25;;;8.63;73.27
21824;BME280;11074;48.596;9.238;2024-03-29T06:47:13;96407.38;;;8.74;72.36
21824;BME280;11074;48.596;9.238;2024-03-29T06:49:38;96411.09;;;8.78;72.86
21824;BME280;11074;48.596;9.238;2024-03-29T06:52:04;96414.38;;;8.70;73.53
21824;BME280;11074;48.596;9.238;2024-03-29T06:54:29;96407.88;;;8.76;73.70
21824;BME280;11074;48.596;9.238;2024-03-29T06:56:55;96411.41;;;8.71;73.81
21824;BME280;11074;48.596;9.238;2024-03-29T06:59:21;96406.31;;;8.75;73.71
21824;BME280;11074;48.596;9.238;2024-03-29T07:01:47;96391.34;;;8.79;72.95
21824;BME280;11074;48.596;9.238;2024-03-29T07:04:13;96384.66;;;8.81;73.56
21824;BME280;11074;48.596;9.238;2024-03-29T07:06:39;96386.25;;;8.82;72.88
21824;BME280;11074;48.596;9.238;2024-03-29T07:09:04;96392.94;;;8.80;72.91
21824;BME280;11074;48.596;9.238;2024-03-29T07:11:31;96405.81;;;8.73;73.30
21824;BME280;11074;48.596;9.238;2024-03-29T07:13:56;96413.81;;;8.73;73.37
21824;BME280;11074;48.596;9.238;2024-03-29T07:16:21;96402.00;;;8.79;73.65
21824;BME280;11074;48.596;9.238;2024-03-29T07:18:47;96400.50;;;8.73;74.22
21824;BME280;11074;48.596;9.238;2024-03-29T07:21:15;96403.41;;;8.71;74.98
21824;BME280;11074;48.596;9.238;2024-03-29T07:23:40;96402.19;;;8.64;75.67
21824;BME280;11074;48.596;9.238;2024-03-29T07:26:06;96411.78;;;8.60;76.04
21824;BME280;11074;48.596;9.238;2024-03-29T07:28:31;96417.13;;;8.60;77.75
21824;BME280;11074;48.596;9.238;2024-03-29T07:30:57;96420.75;;;8.45;78.48
21824;BME280;11074;48.596;9.238;2024-03-29T07:33:23;96417.09;;;8.65;78.94
21824;BME280;11074;48.596;9.238;2024-03-29T07:35:52;96437.41;;;8.56;80.10
21824;BME280;11074;48.596;9.238;2024-03-29T07:38:18;96466.47;;;8.52;81.08
21824;BME280;11074;48.596;9.238;2024-03-29T07:40:49;96483.53;;;8.51;81.91
21824;BME280;11074;48.596;9.238;2024-03-29T07:43:14;96495.59;;;8.38;82.25
21824;BME280;11074;48.596;9.238;2024-03-29T07:45:41;96504.53;;;8.52;82.32
21824;BME280;11074;48.596;9.238;2024-03-29T07:48:09;96511.28;;;8.45;83.53
21824;BME280;11074;48.596;9.238;2024-03-29T07:50:34;96514.34;;;8.62;83.62
21824;BME280;11074;48.596;9.238;2024-03-29T07:52:59;96512.19;;;8.64;83.84
21824;BME280;11074;48.596;9.238;2024-03-29T07:55:25;96521.38;;;8.77;82.45
21824;BME280;11074;48.596;9.238;2024-03-29T07:57:50;96524.03;;;8.77;83.58
21824;BME280;11074;48.596;9.238;2024-03-29T08:00:15;96528.91;;;8.70;85.04
21824;BME280;11074;48.596;9.238;2024-03-29T08:02:41;96527.69;;;8.86;83.05
21824;BME280;11074;48.596;9.238;2024-03-29T08:05:06;96526.50;;;8.97;83.08
21824;BME280;11074;48.596;9.238;2024-03-29T08:07:32;96524.03;;;9.05;84.45
21824;BME280;11074;48.596;9.238;2024-03-29T08:09:57;96520.53;;;9.10;84.38
21824;BME280;11074;48.596;9.238;2024-03-29T08:12:23;96510.88;;;9.14;87.17
21824;BME280;11074;48.596;9.238;2024-03-29T08:14:48;96513.59;;;9.09;85.14
21824;BME280;11074;48.596;9.238;2024-03-29T08:17:14;96523.91;;;9.15;86.94
21824;BME280;11074;48.596;9.238;2024-03-29T08:19:42;96522.00;;;9.21;85.67
21824;BME280;11074;48.596;9.238;2024-03-29T08:22:08;96524.78;;;9.11;86.52
21824;BME280;11074;48.596;9.238;2024-03-29T08:24:38;96532.50;;;9.12;86.69
21824;BME280;11074;48.596;9.238;2024-03-29T08:27:03;96533.84;;;9.10;86.90
21824;BME280;11074;48.596;9.238;2024-03-29T08:29:29;96534.13;;;9.08;86.47
21824;BME280;11074;48.596;9.238;2024-03-29T08:31:54;96534.38;;;9.12;86.18
21824;BME280;11074;48.596;9.238;2024-03-29T08:34:20;96531.19;;;9.10;87.57
21824;BME280;11074;48.596;9.238;2024-03-29T08:36:45;96527.66;;;9.14;87.59
21824;BME280;11074;48.596;9.238;2024-03-29T08:39:10;96523.47;;;9.32;85.83
21824;BME280;11074;48.596;9.238;2024-03-29T08:41:36;96541.38;;;9.50;88.97
21824;BME280;11074;48.596;9.238;2024-03-29T08:44:02;96542.91;;;9.56;87.42
21824;BME280;11074;48.596;9.238;2024-03-29T08:46:27;96534.03;;;9.66;86.78
21824;BME280;11074;48.596;9.238;2024-03-29T08:48:53;96533.59;;;9.77;87.38
21824;BME280;11074;48.596;9.238;2024-03-29T08:51:20;96537.56;;;9.80;87.84
21824;BME280;11074;48.596;9.238;2024-03-29T08:53:45;96555.44;;;9.80;88.93
21824;BME280;11074;48.596;9.238;2024-03-29T08:56:11;96555.00;;;9.72;88.86
21824;BME280;11074;48.596;9.238;2024-03-29T08:58:37;96552.63;;;9.71;87.58
21824;BME280;11074;48.596;9.238;2024-03-29T09:01:03;96558.16;;;9.74;88.25
21824;BME280;11074;48.596;9.238;2024-03-29T09:03:29;96552.75;;;9.80;87.83
21824;BME280;11074;48.596;9.238;2024-03-29T09:05:54;96544.09;;;9.69;88.61
21824;BME280;11074;48.596;9.238;2024-03-29T09:08:20;96540.13;;;9.66;89.66
21824;BME280;11074;48.596;9.238;2024-03-29T09:10:45;96547.97;;;9.82;89.28
21824;BME280;11074;48.596;9.238;2024-03-29T09:13:11;96542.56;;;9.87;88.07
21824;BME280;11074;48.596;9.238;2024-03-29T09:15:36;96549.63;;;9.96;89.70
21824;BME280;11074;48.596;9.238;2024-03-29T09:18:02;96540.75;;;10.01;89.45
21824;BME280;11074;48.596;9.238;2024-03-29T09:20:35;96563.34;;;10.08;89.26
21824;BME280;11074;48.596;9.238;2024-03-29T09:23:00;96541.94;;;10.13;89.40
21824;BME280;11074;48.596;9.238;2024-03-29T09:25:26;96568.19;;;10.25;91.56
21824;BME280;11074;48.596;9.238;2024-03-29T09:27:51;96560.75;;;10.22;89.53
21824;BME280;11074;48.596;9.238;2024-03-29T09:30:16;96548.75;;;10.24;88.38
21824;BME280;11074;48.596;9.238;2024-03-29T09:32:44;96562.44;;;10.18;87.37
21824;BME280;11074;48.596;9.238;2024-03-29T09:35:09;96559.69;;;10.23;88.07
21824;BME280;11074;48.596;9.238;2024-03-29T09:37:34;96569.06;;;10.20;89.67
21824;BME280;11074;48.596;9.238;2024-03-29T09:40:03;96550.03;;;10.27;90.41
21824;BME280;11074;48.596;9.238;2024-03-29T09:42:31;96547.28;;;10.32;91.16
21824;BME280;11074;48.596;9.238;2024-03-29T09:44:57;96540.72;;;10.43;89.94
21824;BME280;11074;48.596;9.238;2024-03-29T09:47:25;96532.94;;;10.60;89.04
21824;BME280;11074;48.596;9.238;2024-03-29T09:49:51;96523.72;;;10.85;90.13
21824;BME280;11074;48.596;9.238;2024-03-29T09:52:19;96516.31;;;10.95;90.38
21824;BME280;11074;48.596;9.238;2024-03-29T09:54:45;96517.81;;;11.15;91.26
21824;BME280;11074;48.596;9.238;2024-03-29T09:57:12;96504.75;;;11.14;88.77
21824;BME280;11074;48.596;9.238;2024-03-29T09:59:38;96518.03;;;11.19;89.41
21824;BME280;11074;48.596;9.238;2024-03-29T10:02:13;96505.94;;;11.35;88.08
21824;BME280;11074;48.596;9.238;2024-03-29T10:04:39;96482.75;;;11.30;87.29
21824;BME280;11074;48.596;9.238;2024-03-29T10:07:06;96485.44;;;11.44;88.69
21824;BME280;11074;48.596;9.238;2024-03-29T10:09:31;96472.44;;;11.51;88.14
21824;BME280;11074;48.596;9.238;2024-03-29T10:11:58;96487.00;;;11.58;89.98
21824;BME280;11074;48.596;9.238;2024-03-29T10:14:23;96488.47;;;11.65;87.66
21824;BME280;11074;48.596;9.238;2024-03-29T10:16:51;96490.16;;;11.74;86.77
21824;BME280;11074;48.596;9.238;2024-03-29T10:19:17;96488.06;;;11.85;87.39
21824;BME280;11074;48.596;9.238;2024-03-29T10:21:42;96485.97;;;11.95;85.30
21824;BME280;11074;48.596;9.238;2024-03-29T10:24:14;96492.50;;;12.25;86.13
21824;BME280;11074;48.596;9.238;2024-03-29T10:26:43;96487.22;;;12.34;83.78
21824;BME280;11074;48.596;9.238;2024-03-29T10:29:09;96482.84;;;12.38;84.17
21824;BME280;11074;48.596;9.238;2024-03-29T10:31:37;96484.06;;;12.54;83.35
21824;BME280;11074;48.596;9.238;2024-03-29T10:34:03;96477.41;;;12.51;83.37
21824;BME280;11074;48.596;9.238;2024-03-29T10:36:30;96475.34;;;12.48;83.83
21824;BME280;11074;48.596;9.238;2024-03-29T10:39:00;96468.94;;;12.58;82.74
21824;BME280;11074;48.596;9.238;2024-03-29T10:41:26;96480.41;;;12.72;81.71
21824;BME280;11074;48.596;9.238;2024-03-29T10:43:53;96472.56;;;12.84;79.94
21824;BME280;11074;48.596;9.238;2024-03-29T10:46:20;96470.56;;;12.90;80.01
21824;BME280;11074;48.596;9.238;2024-03-29T10:48:47;96471.22;;;12.95;79.48
21824;BME280;11074;48.596;9.238;2024-03-29T10:51:14;96462.72;;;13.02;79.52
21824;BME280;11074;48.596;9.238;2024-03-29T10:53:39;96449.78;;;13.04;77.80
21824;BME280;11074;48.596;9.238;2024-03-29T10:56:07;96457.41;;;13.10;78.26
21824;BME280;11074;48.596;9.238;2024-03-29T10:58:35;96439.13;;;13.21;75.83
21824;BME280;11074;48.596;9.238;2024-03-29T11:01:03;96432.25;;;13.37;74.59
21824;BME280;11074;48.596;9.238;2024-03-29T11:03:44;96432.91;;;13.51;75.10
21824;BME280;11074;48.596;9.238;2024-03-29T11:06:14;96445.41;;;13.56;72.43
21824;BME280;11074;48.596;9.238;2024-03-29T11:08:40;96445.22;;;13.52;73.60
21824;BME280;11074;48.596;9.238;2024-03-29T11:11:11;96455.81;;;13.57;73.60
21824;BME280;11074;48.596;9.238;2024-03-29T11:13:49;96448.28;;;13.68;72.81
21824;BME280;11074;48.596;9.238;2024-03-29T11:16:17;96442.56;;;13.61;71.37
21824;BME280;11074;48.596;9.238;2024-03-29T11:18:44;96447.78;;;13.74;71.30
21824;BME280;11074;48.596;9.238;2024-03-29T11:21:10;96440.84;;;13.73;71.12
21824;BME280;11074;48.596;9.238;2024-03-29T11:23:37;96427.91;;;13.75;72.63
21824;BME280;11074;48.596;9.238;2024-03-29T11:26:02;96428.38;;;13.77;71.86
21824;BME280;11074;48.596;9.238;2024-03-29T11:28:34;96434.84;;;13.76;71.26
21824;BME280;11074;48.596;9.238;2024-03-29T11:31:05;96426.16;;;13.62;71.86
21824;BME280;11074;48.596;9.238;2024-03-29T11:36:10;96434.34;;;13.66;70.78
21824;BME280;11074;48.596;9.238;2024-03-29T11:38:37;96440.03;;;13.64;72.67
21824;BME280;11074;48.596;9.238;2024-03-29T11:41:13;96440.06;;;13.73;71.73
21824;BME280;11074;48.596;9.238;2024-03-29T11:43:39;96451.44;;;13.70;70.91
21824;BME280;11074;48.596;9.238;2024-03-29T11:46:06;96444.03;;;13.75;70.45
21824;BME280;11074;48.596;9.238;2024-03-29T11:48:33;96443.53;;;13.82;72.26
21824;BME280;11074;48.596;9.238;2024-03-29T11:51:02;96446.69;;;13.84;72.97
21824;BME280;11074;48.596;9.238;2024-03-29T11:53:28;96450.66;;;13.86;72.36
21824;BME280;11074;48.596;9.238;2024-03-29T11:55:54;96450.97;;;14.11;69.58
21824;BME280;11074;48.596;9.238;2024-03-29T11:58:21;96445.94;;;14.35;68.25
21824;BME280;11074;48.596;9.238;2024-03-29T12:00:47;96437.84;;;14.52;68.97
21824;BME280;11074;48.596;9.238;2024-03-29T12:03:17;96441.72;;;14.89;67.24
21824;BME280;11074;48.596;9.238;2024-03-29T12:05:47;96445.28;;;15.10;67.16
21824;BME280;11074;48.596;9.238;2024-03-29T12:08:14;96444.19;;;15.49;65.97
21824;BME280;11074;48.596;9.238;2024-03-29T12:10:39;96428.09;;;15.61;65.37
21824;BME280;11074;48.596;9.238;2024-03-29T12:13:05;96436.94;;;15.70;62.79
21824;BME280;11074;48.596;9.238;2024-03-29T12:15:30;96430.25;;;15.67;64.44
21824;BME280;11074;48.596;9.238;2024-03-29T12:18:05;96425.63;;;15.97;63.16
21824;BME280;11074;48.596;9.238;2024-03-29T12:20:35;96423.19;;;16.25;62.52
21824;BME280;11074;48.596;9.238;2024-03-29T12:23:03;96414.59;;;16.44;61.55
21824;BME280;11074;48.596;9.238;2024-03-29T12:25:29;96395.94;;;16.83;61.35
21824;BME280;11074;48.596;9.238;2024-03-29T12:27:55;96407.88;;;16.94;60.03
21824;BME280;11074;48.596;9.238;2024-03-29T12:30:21;96408.13;;;17.14;60.96
21824;BME280;11074;48.596;9.238;2024-03-29T12:32:46;96417.25;;;17.33;58.17
21824;BME280;11074;48.596;9.238;2024-03-29T12:35:14;96427.28;;;17.57;57.71
21824;BME280;11074;48.596;9.238;2024-03-29T12:37:49;96435.81;;;17.59;56.04
21824;BME280;11074;48.596;9.238;2024-03-29T12:40:16;96420.50;;;17.15;59.21
21824;BME280;11074;48.596;9.238;2024-03-29T12:42:50;96427.72;;;17.23;58.84
21824;BME280;11074;48.596;9.238;2024-03-29T12:45:17;96428.91;;;17.01;57.74
21824;BME280;11074;48.596;9.238;2024-03-29T12:47:43;96447.69;;;16.53;60.20
21824;BME280;11074;48.596;9.238;2024-03-29T12:50:09;96434.50;;;16.51;59.25
21824;BME280;11074;48.596;9.238;2024-03-29T12:52:41;96430.84;;;16.35;59.97
21824;BME280;11074;48.596;9.238;2024-03-29T12:55:07;96426.47;;;16.30;60.24
21824;BME280;11074;48.596;9.238;2024-03-29T12:57:34;96420.25;;;16.83;56.68
21824;BME280;11074;48.596;9.238;2024-03-29T13:00:00;96417.34;;;17.13;56.34
21824;BME280;11074;48.596;9.238;2024-03-29T13:02:26;96436.81;;;17.30;56.03
21824;BME280;11074;48.596;9.238;2024-03-29T13:04:51;96443.63;;;17.61;54.43